sensor_id;sensor_type;location;lat;lon;timestamp;pressure;altitude;pressure_sealevel;temperature;humidity
59063;BME280;44851;45.648;9.004;2022-09-21T00:00:42;99191.38;;;16.40;44.97
59063;BME280;44851;45.648;9.004;2022-09-21T00:03:07;99191.56;;;16.30;44.45
59063;BME280;44851;45.648;9.004;2022-09-21T00:05:33;99193.84;;;16.41;44.72
59063;BME280;44851;45.648;9.004;2022-09-21T00:08:04;99192.88;;;16.34;44.57
59063;BME280;44851;45.648;9.004;2022-09-21T00:10:30;99198.94;;;16.43;45.09
59063;BME280;44851;45.648;9.004;2022-09-21T00:12:57;99204.31;;;16.49;44.97
59063;BME280;44851;45.648;9.004;2022-09-21T00:15:24;99198.41;;;16.47;45.26
59063;BME280;44851;45.648;9.004;2022-09-21T00:17:53;99199.22;;;16.48;45.35
59063;BME280;44851;45.648;9.004;2022-09-21T00:20:19;99207.94;;;16.48;45.38
59063;BME280;44851;45.648;9.004;2022-09-21T00:22:46;99211.56;;;16.47;45.58
59063;BME280;44851;45.648;9.004;2022-09-21T00:25:12;99208.56;;;16.50;45.41
59063;BME280;44851;45.648;9.004;2022-09-21T00:27:38;99215.41;;;16.28;46.00
59063;BME280;44851;45.648;9.004;2022-09-21T00:30:04;99208.31;;;16.37;45.67
59063;BME280;44851;45.648;9.004;2022-09-21T00:32:31;99208.63;;;16.42;45.83
59063;BME280;44851;45.648;9.004;2022-09-21T00:34:57;99209.41;;;16.51;46.10
59063;BME280;44851;45.648;9.004;2022-09-21T00:37:23;99211.38;;;16.49;45.80
59063;BME280;44851;45.648;9.004;2022-09-21T00:39:49;99207.16;;;16.40;46.11
59063;BME280;44851;45.648;9.004;2022-09-21T00:42:21;99215.22;;;16.38;46.20
59063;BME280;44851;45.648;9.004;2022-09-21T00:44:47;99209.97;;;16.38;46.65
59063;BME280;44851;45.648;9.004;2022-09-21T00:47:15;99211.97;;;16.28;46.50
59063;BME280;44851;45.648;9.004;2022-09-21T00:49:47;99211.00;;;16.13;46.45
59063;BME280;44851;45.648;9.004;2022-09-21T00:52:15;99212.59;;;16.30;46.73
59063;BME280;44851;45.648;9.004;2022-09-21T00:54:47;99213.59;;;16.29;46.84
59063;BME280;44851;45.648;9.004;2022-09-21T00:57:15;99216.25;;;16.29;47.11
59063;BME280;44851;45.648;9.004;2022-09-21T00:59:42;99213.59;;;16.29;47.08
59063;BME280;44851;45.648;9.004;2022-09-21T01:02:09;99216.72;;;16.32;47.10
59063;BME280;44851;45.648;9.004;2022-09-21T01:04:35;99212.91;;;16.35;47.13
59063;BME280;44851;45.648;9.004;2022-09-21T01:07:05;99214.44;;;16.29;47.17
59063;BME280;44851;45.648;9.004;2022-09-21T01:09:36;99217.88;;;16.30;47.21
59063;BME280;44851;45.648;9.004;2022-09-21T01:12:11;99219.22;;;16.26;47.27
59063;BME280;44851;45.648;9.004;2022-09-21T01:29:07;99217.91;;;16.14;48.00
59063;BME280;44851;45.648;9.004;2022-09-21T01:31:45;99225.47;;;16.08;48.26
59063;BME280;44851;45.648;9.004;2022-09-21T01:34:23;99223.16;;;16.14;48.52
59063;BME280;44851;45.648;9.004;2022-09-21T01:36:53;99234.03;;;16.11;48.47
59063;BME280;44851;45.648;9.004;2022-09-21T01:39:22;99233.69;;;16.14;48.55
59063;BME280;44851;45.648;9.004;2022-09-21T01:41:49;99229.47;;;15.96;49.27
59063;BME280;44851;45.648;9.004;2022-09-21T01:44:22;99229.28;;;16.06;48.68
59063;BME280;44851;45.648;9.004;2022-09-21T01:46:49;99226.03;;;15.96;48.88
59063;BME280;44851;45.648;9.004;2022-09-21T01:49:19;99230.41;;;16.12;48.81
59063;BME280;44851;45.648;9.004;2022-09-21T01:51:50;99234.03;;;16.11;48.88
59063;BME280;44851;45.648;9.004;2022-09-21T01:54:21;99227.59;;;16.13;48.69
59063;BME280;44851;45.648;9.004;2022-09-21T01:59:56;99229.47;;;15.96;48.99
59063;BME280;44851;45.648;9.004;2022-09-21T02:02:28;99236.69;;;16.02;49.16
59063;BME280;44851;45.648;9.004;2022-09-21T02:04:58;99235.41;;;15.98;49.46
59063;BME280;44851;45.648;9.004;2022-09-21T02:07:25;99237.34;;;16.04;49.30
59063;BME280;44851;45.648;9.004;2022-09-21T02:09:51;99232.78;;;15.90;49.31
59063;BME280;44851;45.648;9.004;2022-09-21T02:12:18;99236.03;;;16.00;49.04
59063;BME280;44851;45.648;9.004;2022-09-21T02:14:44;99237.72;;;15.93;49.43
59063;BME280;44851;45.648;9.004;2022-09-21T02:17:30;99237.34;;;16.04;49.16
59063;BME280;44851;45.648;9.004;2022-09-21T02:20:06;99239.50;;;15.93;49.69
59063;BME280;44851;45.648;9.004;2022-09-21T02:25:20;99242.44;;;16.06;49.20
59063;BME280;44851;45.648;9.004;2022-09-21T02:31:20;99232.28;;;15.87;49.57
59063;BME280;44851;45.648;9.004;2022-09-21T02:39:17;99240.94;;;16.20;48.97
59063;BME280;44851;45.648;9.004;2022-09-21T02:42:08;99241.59;;;16.22;49.15
59063;BME280;44851;45.648;9.004;2022-09-21T02:44:41;99245.22;;;16.21;49.25
59063;BME280;44851;45.648;9.004;2022-09-21T02:47:17;99243.22;;;16.23;49.06
59063;BME280;44851;45.648;9.004;2022-09-21T02:49:48;99236.81;;;16.25;49.35
59063;BME280;44851;45.648;9.004;2022-09-21T02:52:16;99248.19;;;16.09;49.43
59063;BME280;44851;45.648;9.004;2022-09-21T02:54:45;99255.53;;;16.14;49.29
59063;BME280;44851;45.648;9.004;2022-09-21T02:57:13;99252.94;;;16.06;49.47
59063;BME280;44851;45.648;9.004;2022-09-21T02:59:39;99250.81;;;16.18;49.35
59063;BME280;44851;45.648;9.004;2022-09-21T03:02:05;99258.69;;;16.18;51.30
59063;BME280;44851;45.648;9.004;2022-09-21T03:04:31;99252.75;;;16.16;51.73
59063;BME280;44851;45.648;9.004;2022-09-21T03:06:57;99249.16;;;16.08;53.60
59063;BME280;44851;45.648;9.004;2022-09-21T03:09:22;99257.25;;;15.99;54.49
59063;BME280;44851;45.648;9.004;2022-09-21T03:11:49;99250.31;;;15.98;52.21
59063;BME280;44851;45.648;9.004;2022-09-21T03:14:14;99259.38;;;15.87;52.57
59063;BME280;44851;45.648;9.004;2022-09-21T03:16:41;99255.47;;;15.83;53.35
59063;BME280;44851;45.648;9.004;2022-09-21T03:19:06;99258.56;;;15.87;53.10
59063;BME280;44851;45.648;9.004;2022-09-21T03:21:32;99259.59;;;15.77;54.33
59063;BME280;44851;45.648;9.004;2022-09-21T03:23:57;99257.09;;;15.76;52.55
59063;BME280;44851;45.648;9.004;2022-09-21T03:26:22;99266.31;;;15.72;54.18
59063;BME280;44851;45.648;9.004;2022-09-21T03:28:49;99262.34;;;15.76;52.39
59063;BME280;44851;45.648;9.004;2022-09-21T03:31:14;99264.03;;;15.77;52.66
59063;BME280;44851;45.648;9.004;2022-09-21T03:33:40;99262.88;;;15.63;52.83
59063;BME280;44851;45.648;9.004;2022-09-21T03:36:06;99268.94;;;15.64;52.80
59063;BME280;44851;45.648;9.004;2022-09-21T03:38:32;99258.13;;;15.67;51.29
59063;BME280;44851;45.648;9.004;2022-09-21T03:40:58;99266.50;;;15.62;51.17
59063;BME280;44851;45.648;9.004;2022-09-21T03:43:23;99259.59;;;15.61;53.05
59063;BME280;44851;45.648;9.004;2022-09-21T03:45:49;99268.63;;;15.59;52.17
59063;BME280;44851;45.648;9.004;2022-09-21T03:48:14;99267.97;;;15.56;51.98
59063;BME280;44851;45.648;9.004;2022-09-21T03:50:41;99272.88;;;15.60;51.84
59063;BME280;44851;45.648;9.004;2022-09-21T03:53:06;99277.81;;;15.63;50.33
59063;BME280;44851;45.648;9.004;2022-09-21T03:55:33;99283.06;;;15.63;52.05
59063;BME280;44851;45.648;9.004;2022-09-21T03:57:59;99274.84;;;15.66;50.51
59063;BME280;44851;45.648;9.004;2022-09-21T04:00:24;99286.03;;;15.51;49.12
59063;BME280;44851;45.648;9.004;2022-09-21T04:02:50;99287.84;;;15.51;51.05
59063;BME280;44851;45.648;9.004;2022-09-21T04:05:16;99290.28;;;15.61;50.16
59063;BME280;44851;45.648;9.004;2022-09-21T04:07:42;99290.94;;;15.54;50.22
59063;BME280;44851;45.648;9.004;2022-09-21T04:10:11;99282.06;;;15.55;50.05
59063;BME280;44851;45.648;9.004;2022-09-21T04:12:38;99290.63;;;15.49;48.58
59063;BME280;44851;45.648;9.004;2022-09-21T04:15:04;99293.25;;;15.49;48.58
59063;BME280;44851;45.648;9.004;2022-09-21T04:17:32;99283.41;;;15.51;48.87
59063;BME280;44851;45.648;9.004;2022-09-21T04:19:58;99292.59;;;15.55;49.20
59063;BME280;44851;45.648;9.004;2022-09-21T04:22:23;99303.75;;;15.49;49.53
59063;BME280;44851;45.648;9.004;2022-09-21T04:24:49;99293.44;;;15.56;49.34
59063;BME280;44851;45.648;9.004;2022-09-21T04:27:14;99300.63;;;15.54;49.54
59063;BME280;44851;45.648;9.004;2022-09-21T04:29:39;99304.25;;;15.53;49.84
59063;BME280;44851;45.648;9.004;2022-09-21T04:32:06;99296.84;;;15.48;48.49
59063;BME280;44851;45.648;9.004;2022-09-21T04:34:31;99296.53;;;15.51;49.78
59063;BME280;44851;45.648;9.004;2022-09-21T04:36:57;99305.06;;;15.53;48.91
59063;BME280;44851;45.648;9.004;2022-09-21T04:39:23;99311.66;;;15.58;48.10
59063;BME280;44851;45.648;9.004;2022-09-21T04:41:49;99303.09;;;15.55;47.56
59063;BME280;44851;45.648;9.004;2022-09-21T04:44:15;99303.44;;;15.52;48.78
59063;BME280;44851;45.648;9.004;2022-09-21T04:46:42;99311.47;;;15.59;48.17
59063;BME280;44851;45.648;9.004;2022-09-21T04:49:08;99312.97;;;15.45;48.27
59063;BME280;44851;45.648;9.004;2022-09-21T04:51:33;99314.59;;;15.63;47.68
59063;BME280;44851;45.648;9.004;2022-09-21T04:53:58;99329.38;;;15.64;47.23
59063;BME280;44851;45.648;9.004;2022-09-21T04:56:24;99323.63;;;15.60;47.71
59063;BME280;44851;45.648;9.004;2022-09-21T04:58:49;99324.47;;;15.69;47.38
59063;BME280;44851;45.648;9.004;2022-09-21T05:01:16;99326.09;;;15.53;46.71
59063;BME280;44851;45.648;9.004;2022-09-21T05:03:41;99327.06;;;15.61;47.13
59063;BME280;44851;45.648;9.004;2022-09-21T05:06:06;99328.72;;;15.62;47.19
59063;BME280;44851;45.648;9.004;2022-09-21T05:08:33;99334.13;;;15.60;47.19
59063;BME280;44851;45.648;9.004;2022-09-21T05:11:18;99342.50;;;15.55;47.97
59063;BME280;44851;45.648;9.004;2022-09-21T05:13:44;99339.25;;;15.62;46.97
59063;BME280;44851;45.648;9.004;2022-09-21T05:16:09;99336.75;;;15.60;46.39
59063;BME280;44851;45.648;9.004;2022-09-21T05:18:35;99354.34;;;15.68;46.82
59063;BME280;44851;45.648;9.004;2022-09-21T05:21:02;99354.19;;;15.61;46.17
59063;BME280;44851;45.648;9.004;2022-09-21T05:23:29;99371.25;;;15.65;46.18
59063;BME280;44851;45.648;9.004;2022-09-21T05:25:55;99378.31;;;15.56;46.95
59063;BME280;44851;45.648;9.004;2022-09-21T05:28:21;99392.28;;;15.57;47.47
59063;BME280;44851;45.648;9.004;2022-09-21T05:33:27;99389.50;;;15.67;48.03
59063;BME280;44851;45.648;9.004;2022-09-21T05:38:57;99403.31;;;15.77;48.99
59063;BME280;44851;45.648;9.004;2022-09-21T05:41:23;99404.28;;;15.76;49.18
59063;BME280;44851;45.648;9.004;2022-09-21T05:43:48;99411.81;;;15.71;49.29
59063;BME280;44851;45.648;9.004;2022-09-21T05:46:21;99410.19;;;15.62;49.80
59063;BME280;44851;45.648;9.004;2022-09-21T05:49:02;99408.72;;;15.67;49.90
59063;BME280;44851;45.648;9.004;2022-09-21T05:51:51;99409.38;;;15.69;50.33
59063;BME280;44851;45.648;9.004;2022-09-21T05:59:57;99428.41;;;15.71;50.28
59063;BME280;44851;45.648;9.004;2022-09-21T06:05:00;99441.41;;;15.81;50.24
59063;BME280;44851;45.648;9.004;2022-09-21T06:07:26;99441.59;;;15.79;50.77
59063;BME280;44851;45.648;9.004;2022-09-21T06:09:52;99449.94;;;15.75;50.71
59063;BME280;44851;45.648;9.004;2022-09-21T06:12:17;99448.66;;;15.79;50.33
59063;BME280;44851;45.648;9.004;2022-09-21T06:14:42;99456.19;;;15.82;50.67
59063;BME280;44851;45.648;9.004;2022-09-21T06:17:08;99456.69;;;15.86;50.55
59063;BME280;44851;45.648;9.004;2022-09-21T06:19:34;99452.75;;;15.81;50.68
59063;BME280;44851;45.648;9.004;2022-09-21T06:21:59;99458.59;;;15.51;50.53
59063;BME280;44851;45.648;9.004;2022-09-21T06:24:24;99458.31;;;15.62;50.77
59063;BME280;44851;45.648;9.004;2022-09-21T06:26:49;99465.03;;;15.65;50.47
59063;BME280;44851;45.648;9.004;2022-09-21T06:29:15;99467.31;;;15.60;50.58
59063;BME280;44851;45.648;9.004;2022-09-21T06:31:41;99462.72;;;15.53;50.66
59063;BME280;44851;45.648;9.004;2022-09-21T06:34:06;99468.81;;;15.62;50.60
59063;BME280;44851;45.648;9.004;2022-09-21T06:36:32;99470.63;;;15.62;50.91
59063;BME280;44851;45.648;9.004;2022-09-21T06:38:57;99472.22;;;15.54;50.77
59063;BME280;44851;45.648;9.004;2022-09-21T06:41:23;99468.66;;;15.64;50.50
59063;BME280;44851;45.648;9.004;2022-09-21T06:43:51;99483.47;;;15.73;50.92
59063;BME280;44851;45.648;9.004;2022-09-21T06:46:17;99480.84;;;15.73;50.78
59063;BME280;44851;45.648;9.004;2022-09-21T06:48:42;99494.94;;;15.64;50.65
59063;BME280;44851;45.648;9.004;2022-09-21T06:51:08;99486.56;;;15.68;50.80
59063;BME280;44851;45.648;9.004;2022-09-21T06:53:34;99490.94;;;15.51;51.26
59063;BME280;44851;45.648;9.004;2022-09-21T06:56:06;99498.03;;;15.51;51.17
59063;BME280;44851;45.648;9.004;2022-09-21T06:58:33;99498.22;;;15.66;50.85
59063;BME280;44851;45.648;9.004;2022-09-21T07:01:10;99497.50;;;15.55;51.18
59063;BME280;44851;45.648;9.004;2022-09-21T07:03:36;99488.03;;;15.71;51.18
59063;BME280;44851;45.648;9.004;2022-09-21T07:06:03;99490.66;;;15.71;50.92
59063;BME280;44851;45.648;9.004;2022-09-21T07:08:29;99485.09;;;15.74;50.61
59063;BME280;44851;45.648;9.004;2022-09-21T07:10:58;99487.50;;;15.51;50.93
59063;BME280;44851;45.648;9.004;2022-09-21T07:13:28;99482.44;;;15.66;51.24
59063;BME280;44851;45.648;9.004;2022-09-21T07:15:53;99485.09;;;15.74;50.89
59063;BME280;44851;45.648;9.004;2022-09-21T07:18:19;99485.91;;;15.74;50.71
59063;BME280;44851;45.648;9.004;2022-09-21T07:20:46;99490.22;;;15.83;51.15
59063;BME280;44851;45.648;9.004;2022-09-21T07:23:14;99482.47;;;15.82;51.25
59063;BME280;44851;45.648;9.004;2022-09-21T07:25:45;99489.72;;;15.80;51.49
59063;BME280;44851;45.648;9.004;2022-09-21T07:28:12;99493.31;;;15.79;50.91
59063;BME280;44851;45.648;9.004;2022-09-21T07:30:39;99497.25;;;15.75;51.14
59063;BME280;44851;45.648;9.004;2022-09-21T07:33:05;99497.63;;;15.88;50.11
59063;BME280;44851;45.648;9.004;2022-09-21T07:35:31;99504.50;;;15.73;51.34
59063;BME280;44851;45.648;9.004;2022-09-21T07:37:57;99505.81;;;15.77;51.00
59063;BME280;44851;45.648;9.004;2022-09-21T07:40:23;99508.41;;;15.69;51.18
59063;BME280;44851;45.648;9.004;2022-09-21T07:42:49;99505.44;;;15.64;50.64
59063;BME280;44851;45.648;9.004;2022-09-21T07:45:14;99502.47;;;15.59;50.67
59063;BME280;44851;45.648;9.004;2022-09-21T07:47:40;99516.47;;;15.75;50.64
59063;BME280;44851;45.648;9.004;2022-09-21T07:50:05;99518.94;;;15.69;50.25
59063;BME280;44851;45.648;9.004;2022-09-21T07:52:31;99519.38;;;15.56;50.46
59063;BME280;44851;45.648;9.004;2022-09-21T07:54:56;99515.44;;;15.60;51.07
59063;BME280;44851;45.648;9.004;2022-09-21T07:57:21;99522.97;;;15.55;50.88
59063;BME280;44851;45.648;9.004;2022-09-21T08:00:06;99532.41;;;15.74;51.37
59063;BME280;44851;45.648;9.004;2022-09-21T08:02:31;99535.22;;;15.72;50.87
59063;BME280;44851;45.648;9.004;2022-09-21T08:04:57;99536.03;;;15.73;49.86
59063;BME280;44851;45.648;9.004;2022-09-21T08:07:22;99538.31;;;15.68;50.61
59063;BME280;44851;45.648;9.004;2022-09-21T08:09:47;99542.09;;;15.73;50.71
59063;BME280;44851;45.648;9.004;2022-09-21T08:12:15;99554.44;;;15.81;50.50
59063;BME280;44851;45.648;9.004;2022-09-21T08:14:43;99548.34;;;15.80;50.42
59063;BME280;44851;45.648;9.004;2022-09-21T08:17:08;99554.78;;;15.78;49.50
59063;BME280;44851;45.648;9.004;2022-09-21T08:19:33;99553.44;;;15.74;50.24
59063;BME280;44851;45.648;9.004;2022-09-21T08:22:00;99559.06;;;15.87;50.01
59063;BME280;44851;45.648;9.004;2022-09-21T08:24:25;99555.25;;;15.81;50.30
59063;BME280;44851;45.648;9.004;2022-09-21T08:26:51;99557.41;;;15.86;50.30
59063;BME280;44851;45.648;9.004;2022-09-21T08:29:17;99557.28;;;15.96;50.03
59063;BME280;44851;45.648;9.004;2022-09-21T08:31:42;99555.94;;;15.92;49.85
59063;BME280;44851;45.648;9.004;2022-09-21T08:34:08;99548.91;;;16.00;49.62
59063;BME280;44851;45.648;9.004;2022-09-21T08:36:33;99562.66;;;15.86;49.52
59063;BME280;44851;45.648;9.004;2022-09-21T08:38:59;99562.84;;;15.93;49.61
59063;BME280;44851;45.648;9.004;2022-09-21T08:44:39;99575.72;;;16.04;49.49
59063;BME280;44851;45.648;9.004;2022-09-21T08:47:14;99579.66;;;16.00;48.84
59063;BME280;44851;45.648;9.004;2022-09-21T08:49:46;99577.31;;;15.97;48.88
59063;BME280;44851;45.648;9.004;2022-09-21T08:52:15;99582.53;;;15.80;48.42
59063;BME280;44851;45.648;9.004;2022-09-21T08:57:19;99583.13;;;15.66;48.38
59063;BME280;44851;45.648;9.004;2022-09-21T08:59:48;99592.56;;;15.85;48.50
59063;BME280;44851;45.648;9.004;2022-09-21T09:02:34;99595.84;;;15.87;48.17
59063;BME280;44851;45.648;9.004;2022-09-21T09:05:16;99589.59;;;15.80;48.22
59063;BME280;44851;45.648;9.004;2022-09-21T09:16:53;99602.09;;;15.86;49.29
59063;BME280;44851;45.648;9.004;2022-09-21T09:22:10;99611.06;;;16.09;48.14
59063;BME280;44851;45.648;9.004;2022-09-21T09:24:42;99611.69;;;16.03;48.11
59063;BME280;44851;45.648;9.004;2022-09-21T09:27:18;99609.56;;;15.99;47.34
59063;BME280;44851;45.648;9.004;2022-09-21T09:32:57;99607.69;;;15.83;47.52
59063;BME280;44851;45.648;9.004;2022-09-21T09:35:28;99613.31;;;15.96;47.42
59063;BME280;44851;45.648;9.004;2022-09-21T09:37:58;99620.59;;;16.11;47.44
59063;BME280;44851;45.648;9.004;2022-09-21T09:43:42;99614.94;;;15.97;47.62
59063;BME280;44851;45.648;9.004;2022-09-21T09:51:15;99617.06;;;15.86;48.32
59063;BME280;44851;45.648;9.004;2022-09-21T09:53:40;99605.88;;;15.83;48.19
59063;BME280;44851;45.648;9.004;2022-09-21T09:56:08;99612.66;;;15.94;48.22
59063;BME280;44851;45.648;9.004;2022-09-21T09:58:53;99608.06;;;15.96;48.58
59063;BME280;44851;45.648;9.004;2022-09-21T10:01:44;99614.94;;;15.97;48.74
59063;BME280;44851;45.648;9.004;2022-09-21T10:04:18;99603.72;;;16.21;47.79
59063;BME280;44851;45.648;9.004;2022-09-21T10:06:43;99607.19;;;16.22;48.02
59063;BME280;44851;45.648;9.004;2022-09-21T10:09:35;99606.56;;;16.36;47.85
59063;BME280;44851;45.648;9.004;2022-09-21T10:12:13;99599.50;;;16.45;46.73
59063;BME280;44851;45.648;9.004;2022-09-21T10:14:48;99600.31;;;16.61;47.57
59063;BME280;44851;45.648;9.004;2022-09-21T10:17:16;99600.31;;;16.37;46.45
59063;BME280;44851;45.648;9.004;2022-09-21T10:19:42;99604.44;;;16.56;47.31
59063;BME280;44851;45.648;9.004;2022-09-21T10:22:15;99602.78;;;16.47;47.22
59063;BME280;44851;45.648;9.004;2022-09-21T10:24:48;99600.66;;;16.58;47.52
59063;BME280;44851;45.648;9.004;2022-09-21T10:27:19;99601.66;;;16.57;47.31
59063;BME280;44851;45.648;9.004;2022-09-21T10:29:47;99591.94;;;16.58;46.71
59063;BME280;44851;45.648;9.004;2022-09-21T10:32:22;99599.66;;;16.51;46.63
59063;BME280;44851;45.648;9.004;2022-09-21T10:37:31;99596.06;;;16.69;45.61
59063;BME280;44851;45.648;9.004;2022-09-21T10:40:02;99600.50;;;16.68;46.42
59063;BME280;44851;45.648;9.004;2022-09-21T10:42:35;99595.25;;;16.52;45.73
59063;BME280;44851;45.648;9.004;2022-09-21T10:45:30;99592.09;;;16.56;46.25
59063;BME280;44851;45.648;9.004;2022-09-21T10:48:17;99591.75;;;16.51;45.81
59063;BME280;44851;45.648;9.004;2022-09-21T10:50:46;99595.38;;;16.67;45.42
59063;BME280;44851;45.648;9.004;2022-09-21T10:53:31;99592.78;;;16.58;45.59
59063;BME280;44851;45.648;9.004;2022-09-21T10:58:29;99590.97;;;16.59;45.08
59063;BME280;44851;45.648;9.004;2022-09-21T11:00:56;99589.97;;;16.68;45.38
59063;BME280;44851;45.648;9.004;2022-09-21T11:03:53;99594.75;;;16.65;45.14
59063;BME280;44851;45.648;9.004;2022-09-21T11:06:25;99587.16;;;16.61;44.28
59063;BME280;44851;45.648;9.004;2022-09-21T11:09:08;99586.69;;;16.74;44.93
59063;BME280;44851;45.648;9.004;2022-09-21T11:11:40;99593.09;;;16.72;44.67
59063;BME280;44851;45.648;9.004;2022-09-21T11:16:58;99591.94;;;16.91;44.46
59063;BME280;44851;45.648;9.004;2022-09-21T11:19:37;99592.09;;;16.97;44.67
59063;BME280;44851;45.648;9.004;2022-09-21T11:22:34;99587.19;;;17.10;44.25
59063;BME280;44851;45.648;9.004;2022-09-21T11:27:55;99583.72;;;17.26;43.59
59063;BME280;44851;45.648;9.004;2022-09-21T11:30:22;99586.13;;;17.44;43.17
59063;BME280;44851;45.648;9.004;2022-09-21T11:44:18;99564.53;;;17.96;42.32
59063;BME280;44851;45.648;9.004;2022-09-21T11:52:37;99556.66;;;19.03;41.65
59063;BME280;44851;45.648;9.004;2022-09-21T11:58:08;99550.19;;;19.35;39.06
59063;BME280;44851;45.648;9.004;2022-09-21T12:15:16;99528.47;;;19.54;39.79
59063;BME280;44851;45.648;9.004;2022-09-21T12:18:11;99534.69;;;19.32;40.44
59063;BME280;44851;45.648;9.004;2022-09-21T12:23:25;99535.41;;;19.26;39.75
59063;BME280;44851;45.648;9.004;2022-09-21T12:25:55;99535.88;;;19.29;39.71
59063;BME280;44851;45.648;9.004;2022-09-21T12:28:29;99530.00;;;18.89;39.38
59063;BME280;44851;45.648;9.004;2022-09-21T12:31:09;99519.44;;;18.89;40.24
59063;BME280;44851;45.648;9.004;2022-09-21T12:33:43;99517.09;;;19.09;40.71
59063;BME280;44851;45.648;9.004;2022-09-21T12:36:34;99517.03;;;19.03;40.57
59063;BME280;44851;45.648;9.004;2022-09-21T12:39:42;99514.81;;;19.06;40.27
59063;BME280;44851;45.648;9.004;2022-09-21T12:44:56;99515.63;;;19.07;41.26
59063;BME280;44851;45.648;9.004;2022-09-21T12:52:52;99507.44;;;18.87;41.41
59063;BME280;44851;45.648;9.004;2022-09-21T13:03:52;99500.97;;;19.04;40.31
59063;BME280;44851;45.648;9.004;2022-09-21T13:06:36;99495.69;;;19.04;40.26
59063;BME280;44851;45.648;9.004;2022-09-21T13:09:05;99500.25;;;19.10;40.10
59063;BME280;44851;45.648;9.004;2022-09-21T13:11:48;99499.69;;;19.00;40.27
59063;BME280;44851;45.648;9.004;2022-09-21T13:14:16;99493.94;;;19.11;39.24
59063;BME280;44851;45.648;9.004;2022-09-21T13:16:42;99490.06;;;19.07;39.35
59063;BME280;44851;45.648;9.004;2022-09-21T13:19:21;99487.78;;;19.19;40.18
59063;BME280;44851;45.648;9.004;2022-09-21T13:22:22;99486.41;;;19.08;39.08
59063;BME280;44851;45.648;9.004;2022-09-21T13:32:58;99480.81;;;19.33;39.90
59063;BME280;44851;45.648;9.004;2022-09-21T13:49:12;99469.97;;;19.28;41.59
59063;BME280;44851;45.648;9.004;2022-09-21T13:51:54;99465.28;;;19.08;41.56
59063;BME280;44851;45.648;9.004;2022-09-21T13:54:27;99466.16;;;19.15;41.14
59063;BME280;44851;45.648;9.004;2022-09-21T13:59:40;99466.97;;;19.31;41.71
59063;BME280;44851;45.648;9.004;2022-09-21T14:02:28;99465.22;;;19.38;40.82
59063;BME280;44851;45.648;9.004;2022-09-21T14:05:00;99456.16;;;19.77;40.10
59063;BME280;44851;45.648;9.004;2022-09-21T14:07:30;99461.31;;;20.06;39.44
59063;BME280;44851;45.648;9.004;2022-09-21T14:10:02;99461.94;;;20.08;40.75
59063;BME280;44851;45.648;9.004;2022-09-21T14:12:40;99451.84;;;19.76;39.38
59063;BME280;44851;45.648;9.004;2022-09-21T14:15:31;99450.50;;;19.65;39.73
59063;BME280;44851;45.648;9.004;2022-09-21T14:21:11;99449.97;;;19.55;39.38
59063;BME280;44851;45.648;9.004;2022-09-21T14:26:48;99447.91;;;19.50;39.36
59063;BME280;44851;45.648;9.004;2022-09-21T14:32:23;99439.38;;;19.55;39.79
59063;BME280;44851;45.648;9.004;2022-09-21T14:34:53;99441.13;;;19.62;38.18
59063;BME280;44851;45.648;9.004;2022-09-21T14:37:31;99447.72;;;19.37;39.13
59063;BME280;44851;45.648;9.004;2022-09-21T14:39:59;99438.44;;;19.77;38.60
59063;BME280;44851;45.648;9.004;2022-09-21T14:42:27;99434.66;;;19.86;38.57
59063;BME280;44851;45.648;9.004;2022-09-21T14:44:58;99438.63;;;19.97;37.49
59063;BME280;44851;45.648;9.004;2022-09-21T14:47:53;99440.75;;;20.08;39.84
59063;BME280;44851;45.648;9.004;2022-09-21T14:53:12;99431.00;;;20.09;38.86
59063;BME280;44851;45.648;9.004;2022-09-21T15:04:00;99413.75;;;19.91;39.82
59063;BME280;44851;45.648;9.004;2022-09-21T15:06:36;99422.75;;;19.97;39.83
59063;BME280;44851;45.648;9.004;2022-09-21T15:12:46;99422.38;;;20.00;39.38
59063;BME280;44851;45.648;9.004;2022-09-21T15:15:28;99415.56;;;19.69;39.16
59063;BME280;44851;45.648;9.004;2022-09-21T15:17:58;99423.75;;;19.75;39.42
59063;BME280;44851;45.648;9.004;2022-09-21T15:20:27;99421.75;;;19.77;39.25
59063;BME280;44851;45.648;9.004;2022-09-21T15:22:55;99422.50;;;19.70;39.91
59063;BME280;44851;45.648;9.004;2022-09-21T15:25:22;99416.84;;;19.73;39.73
59063;BME280;44851;45.648;9.004;2022-09-21T15:27:48;99413.94;;;19.68;40.20
59063;BME280;44851;45.648;9.004;2022-09-21T15:30:22;99412.50;;;19.51;40.18
59063;BME280;44851;45.648;9.004;2022-09-21T15:32:56;99415.31;;;19.50;40.32
59063;BME280;44851;45.648;9.004;2022-09-21T15:35:25;99411.88;;;19.49;40.18
59063;BME280;44851;45.648;9.004;2022-09-21T15:37:52;99412.81;;;19.41;40.51
59063;BME280;44851;45.648;9.004;2022-09-21T15:40:24;99410.25;;;19.33;40.53
59063;BME280;44851;45.648;9.004;2022-09-21T15:43:04;99411.81;;;19.28;40.98
59063;BME280;44851;45.648;9.004;2022-09-21T15:45:50;99411.50;;;19.01;41.04
59063;BME280;44851;45.648;9.004;2022-09-21T15:48:17;99409.78;;;19.08;41.35
59063;BME280;44851;45.648;9.004;2022-09-21T15:50:46;99419.69;;;19.06;41.44
59063;BME280;44851;45.648;9.004;2022-09-21T15:53:45;99413.97;;;18.88;41.62
59063;BME280;44851;45.648;9.004;2022-09-21T15:56:21;99420.81;;;18.97;41.30
59063;BME280;44851;45.648;9.004;2022-09-21T15:58:49;99419.69;;;18.62;41.59
59063;BME280;44851;45.648;9.004;2022-09-21T16:01:18;99420.63;;;18.84;42.02
59063;BME280;44851;45.648;9.004;2022-09-21T16:03:46;99414.88;;;18.80;42.01
59063;BME280;44851;45.648;9.004;2022-09-21T16:06:27;99421.69;;;18.75;41.89
59063;BME280;44851;45.648;9.004;2022-09-21T16:08:53;99421.25;;;18.86;42.07
59063;BME280;44851;45.648;9.004;2022-09-21T16:11:31;99418.59;;;18.86;41.80
59063;BME280;44851;45.648;9.004;2022-09-21T16:14:13;99421.09;;;18.87;41.76
59063;BME280;44851;45.648;9.004;2022-09-21T16:22:12;99425.56;;;18.87;41.95
59063;BME280;44851;45.648;9.004;2022-09-21T16:24:50;99414.72;;;18.82;42.34
59063;BME280;44851;45.648;9.004;2022-09-21T16:27:18;99426.19;;;18.89;42.63